createdAt,value
2019-02-24T00:00:45.145Z,16.29
2019-02-24T00:03:17.165Z,16.12
2019-02-24T00:05:48.766Z,16.21
2019-02-24T00:08:20.475Z,16.38
2019-02-24T00:10:52.062Z,16.38
2019-02-24T00:13:24.431Z,16.19
2019-02-24T00:15:55.896Z,16.36
2019-02-24T00:18:27.283Z,16.58
2019-02-24T00:20:58.952Z,16.64
2019-02-24T00:23:30.493Z,16.46
2019-02-24T00:26:02.504Z,16.46
2019-02-24T00:28:34.444Z,16.55
2019-02-24T00:31:05.926Z,16.55
2019-02-24T00:33:37.365Z,16.38
2019-02-24T00:36:08.972Z,16.39
2019-02-24T00:38:40.408Z,16.46
2019-02-24T00:41:12.200Z,16.36
2019-02-24T00:43:44.002Z,16.36
2019-02-24T00:46:15.487Z,16.49
2019-02-24T00:48:47.233Z,16.39
2019-02-24T00:51:18.596Z,16.39
2019-02-24T00:53:50.349Z,16.44
2019-02-24T00:56:21.873Z,16.59
2019-02-24T00:58:53.535Z,16.59
2019-02-24T01:01:24.935Z,16.49
2019-02-24T01:03:56.432Z,16.49
2019-02-24T01:06:28.279Z,16.41
2019-02-24T01:08:59.996Z,16.42
2019-02-24T01:11:31.495Z,16.33
2019-02-24T01:14:03.163Z,16.33
2019-02-24T01:16:35.035Z,16.23
2019-02-24T01:19:06.735Z,16.31
2019-02-24T01:21:38.051Z,16.28
2019-02-24T01:24:09.742Z,16.28
2019-02-24T01:26:41.299Z,16.28
2019-02-24T01:29:12.894Z,16.31
2019-02-24T01:31:44.483Z,16.16
2019-02-24T01:34:15.958Z,16.16
2019-02-24T01:36:47.634Z,16.01
2019-02-24T01:39:19.294Z,16.16
2019-02-24T01:41:50.674Z,16.00
2019-02-24T01:44:22.069Z,16.00
2019-02-24T01:46:53.794Z,16.35
2019-02-24T01:49:25.339Z,16.35
2019-02-24T01:51:57.035Z,16.32
2019-02-24T01:54:28.605Z,16.27
2019-02-24T01:56:59.949Z,16.32
2019-02-24T01:59:31.508Z,16.34
2019-02-24T02:02:03.149Z,16.34
2019-02-24T02:04:34.710Z,16.01
2019-02-24T02:07:06.081Z,16.29
2019-02-24T02:09:37.545Z,16.54
2019-02-24T02:12:10.970Z,16.54
2019-02-24T02:14:42.715Z,16.75
2019-02-24T02:17:14.221Z,16.75
2019-02-24T02:19:45.829Z,16.89
2019-02-24T02:22:17.477Z,16.97
2019-02-24T02:24:49.196Z,16.83
2019-02-24T02:27:20.655Z,16.83
2019-02-24T02:29:52.600Z,16.63
2019-02-24T02:32:24.424Z,16.63
2019-02-24T02:34:56.899Z,16.87
2019-02-24T02:37:28.435Z,16.84
2019-02-24T02:39:59.975Z,16.85
2019-02-24T02:42:31.310Z,16.92
2019-02-24T02:45:02.855Z,16.64
2019-02-24T02:47:34.684Z,16.63
2019-02-24T02:50:06.959Z,16.67
2019-02-24T02:52:38.766Z,16.84
2019-02-24T02:55:10.587Z,16.94
2019-02-24T02:57:42.115Z,16.66
2019-02-24T03:00:37.516Z,16.89
2019-02-24T03:03:08.822Z,16.89
2019-02-24T03:05:42.141Z,16.93
2019-02-24T03:08:15.651Z,16.95
2019-02-24T03:10:47.146Z,17.06
2019-02-24T03:13:18.873Z,17.06
2019-02-24T03:15:50.468Z,16.96
2019-02-24T03:18:22.071Z,17.07
2019-02-24T03:20:54.250Z,17.13
2019-02-24T03:23:25.670Z,17.13
2019-02-24T03:25:57.710Z,17.16
2019-02-24T03:28:29.344Z,16.90
2019-02-24T03:31:01.133Z,16.92
2019-02-24T03:33:32.673Z,16.87
2019-02-24T03:36:04.323Z,16.86
2019-02-24T03:38:35.868Z,16.95
2019-02-24T03:41:07.822Z,16.70
2019-02-24T03:43:40.500Z,16.92
2019-02-24T03:46:12.040Z,16.99
2019-02-24T03:48:43.585Z,16.61
2019-02-24T03:51:16.463Z,16.85
2019-02-24T03:53:48.314Z,16.69
2019-02-24T03:56:19.773Z,16.69
2019-02-24T03:58:51.786Z,16.91
2019-02-24T04:01:23.453Z,16.91
2019-02-24T04:03:55.079Z,17.37
2019-02-24T04:06:26.658Z,17.22
2019-02-24T04:08:58.175Z,17.22
2019-02-24T04:11:29.464Z,17.21
2019-02-24T04:14:01.040Z,17.46
2019-02-24T04:16:32.590Z,17.46
2019-02-24T04:19:04.429Z,17.39
2019-02-24T04:21:36.605Z,17.29
2019-02-24T04:24:08.274Z,17.27
2019-02-24T04:26:39.846Z,17.43
2019-02-24T04:29:11.500Z,17.32
2019-02-24T04:31:43.048Z,17.42
2019-02-24T04:34:14.766Z,17.52
2019-02-24T04:36:46.192Z,17.52
2019-02-24T04:39:17.568Z,17.50
2019-02-24T04:41:49.323Z,17.56
2019-02-24T04:44:21.060Z,17.64
2019-02-24T04:46:53.075Z,17.76
2019-02-24T04:49:24.589Z,17.66
2019-02-24T04:51:56.223Z,17.76
2019-02-24T04:54:27.935Z,17.76
2019-02-24T04:56:59.748Z,18.06
2019-02-24T04:59:35.053Z,17.79
2019-02-24T05:02:04.342Z,18.07
2019-02-24T05:04:36.035Z,18.10
2019-02-24T05:07:07.543Z,18.10
2019-02-24T05:09:39.303Z,18.49
2019-02-24T05:12:10.783Z,18.55
2019-02-24T05:14:42.492Z,18.70
2019-02-24T05:17:13.845Z,19.08
2019-02-24T05:19:45.377Z,19.13
2019-02-24T05:22:17.153Z,19.13
2019-02-24T05:24:48.805Z,19.50
2019-02-24T05:27:20.432Z,19.96
2019-02-24T05:29:52.097Z,19.96
2019-02-24T05:32:24.108Z,19.58
2019-02-24T05:34:55.924Z,19.93
2019-02-24T05:37:27.545Z,19.93
2019-02-24T05:39:59.173Z,20.18
2019-02-24T05:42:30.720Z,20.27
2019-02-24T05:45:02.335Z,20.27
2019-02-24T05:47:34.914Z,20.49
2019-02-24T05:50:06.367Z,20.16
2019-02-24T05:52:37.891Z,20.11
2019-02-24T05:55:09.516Z,20.11
2019-02-24T05:57:41.165Z,20.61
2019-02-24T06:00:13.998Z,20.76
2019-02-24T06:02:45.798Z,20.76
2019-02-24T06:05:17.414Z,20.77
2019-02-24T06:07:48.762Z,20.75
2019-02-24T06:10:20.436Z,20.75
2019-02-24T06:12:51.963Z,20.65
2019-02-24T06:15:24.600Z,20.55
2019-02-24T06:17:56.317Z,20.88
2019-02-24T06:20:27.878Z,20.88
2019-02-24T06:22:59.482Z,20.89
2019-02-24T06:25:31.429Z,20.87
2019-02-24T06:28:03.013Z,20.91
2019-02-24T06:30:34.603Z,21.30
2019-02-24T06:33:06.504Z,21.18
2019-02-24T06:35:37.936Z,21.18
2019-02-24T06:38:09.600Z,21.30
2019-02-24T06:40:40.983Z,21.11
2019-02-24T06:43:12.703Z,20.74
2019-02-24T06:45:45.983Z,21.01
2019-02-24T06:48:17.625Z,20.97
2019-02-24T06:50:55.418Z,21.28
2019-02-24T06:53:26.918Z,21.28
2019-02-24T06:55:58.298Z,21.34
2019-02-24T06:58:29.846Z,21.29
2019-02-24T07:01:01.357Z,21.29
2019-02-24T07:03:33.399Z,21.20
2019-02-24T07:06:05.025Z,21.58
2019-02-24T07:08:36.595Z,21.70
2019-02-24T07:11:09.441Z,21.45
2019-02-24T07:13:40.898Z,21.55
2019-02-24T07:16:12.498Z,21.78
2019-02-24T07:18:44.234Z,21.73
2019-02-24T07:21:15.921Z,21.64
2019-02-24T07:23:47.780Z,21.64
2019-02-24T07:26:19.694Z,21.69
2019-02-24T07:28:52.221Z,21.78
2019-02-24T07:31:24.127Z,21.54
2019-02-24T07:33:56.655Z,21.54
2019-02-24T07:36:28.239Z,21.43
2019-02-24T07:39:00.074Z,21.39
2019-02-24T07:41:31.596Z,21.45
2019-02-24T07:44:03.502Z,21.61
2019-02-24T07:46:35.376Z,21.58
2019-02-24T07:49:07.188Z,21.62
2019-02-24T07:51:38.795Z,21.78
2019-02-24T07:54:10.431Z,21.78
2019-02-24T07:56:42.138Z,21.95
2019-02-24T07:59:13.957Z,21.95
2019-02-24T08:01:45.987Z,21.89
2019-02-24T08:04:18.035Z,21.89
2019-02-24T08:06:49.411Z,21.95
2019-02-24T08:09:21.078Z,22.09
2019-02-24T08:11:52.439Z,22.09
2019-02-24T08:14:24.011Z,21.99
2019-02-24T08:16:55.651Z,21.99
2019-02-24T08:19:27.364Z,22.38
2019-02-24T08:21:59.251Z,22.28
2019-02-24T08:24:31.696Z,22.28
2019-02-24T08:27:03.386Z,22.11
2019-02-24T08:29:35.015Z,22.31
2019-02-24T08:32:06.590Z,22.23
2019-02-24T08:34:38.625Z,22.13
2019-02-24T08:37:11.439Z,22.38
2019-02-24T08:39:43.272Z,22.38
2019-02-24T08:42:15.081Z,22.79
2019-02-24T08:44:46.856Z,23.02
2019-02-24T08:47:18.673Z,22.55
2019-02-24T08:49:50.220Z,22.55
2019-02-24T08:52:22.174Z,22.65
2019-02-24T08:54:53.750Z,22.81
2019-02-24T08:57:25.376Z,22.81
2019-02-24T08:59:56.892Z,23.04
2019-02-24T09:02:28.230Z,22.98
2019-02-24T09:04:59.659Z,22.98
2019-02-24T09:07:31.367Z,22.83
2019-02-24T09:10:03.833Z,22.83
2019-02-24T09:12:35.489Z,23.05
2019-02-24T09:15:07.211Z,23.15
2019-02-24T09:17:39.136Z,22.74
2019-02-24T09:20:11.186Z,22.92
2019-02-24T09:22:43.010Z,22.81
2019-02-24T09:25:14.307Z,22.67
2019-02-24T09:27:46.024Z,22.88
2019-02-24T09:30:17.509Z,22.88
2019-02-24T09:32:49.227Z,22.90
2019-02-24T09:35:20.899Z,22.89
2019-02-24T09:37:52.812Z,22.76
2019-02-24T09:40:24.436Z,22.89
2019-02-24T09:42:55.990Z,23.05
2019-02-24T09:45:27.536Z,22.93
2019-02-24T09:47:59.179Z,22.80
2019-02-24T09:50:30.771Z,22.60
2019-02-24T09:53:07.231Z,22.75
2019-02-24T09:55:38.995Z,22.75
2019-02-24T09:58:10.507Z,22.95
2019-02-24T10:00:42.294Z,22.73
2019-02-24T10:03:14.229Z,22.73
2019-02-24T10:05:46.048Z,23.00
2019-02-24T10:08:17.540Z,22.92
2019-02-24T10:10:50.272Z,22.92
2019-02-24T10:13:31.941Z,22.89
2019-02-24T10:16:03.606Z,22.89
2019-02-24T10:18:35.114Z,22.88
2019-02-24T10:21:07.780Z,22.97
2019-02-24T10:23:39.279Z,22.88
2019-02-24T10:26:11.201Z,22.85
2019-02-24T10:28:42.790Z,22.85
2019-02-24T10:31:19.819Z,22.96
2019-02-24T10:33:49.599Z,22.98
2019-02-24T10:36:21.313Z,22.95
2019-02-24T10:38:53.066Z,22.66
2019-02-24T10:41:24.604Z,22.66
2019-02-24T10:43:56.328Z,22.52
2019-02-24T10:46:27.703Z,22.60
2019-02-24T10:49:03.396Z,22.77
2019-02-24T10:51:32.914Z,22.66
2019-02-24T10:54:04.755Z,22.62
2019-02-24T10:56:36.376Z,22.61
2019-02-24T10:59:08.374Z,22.59
2019-02-24T11:01:40.039Z,22.59
2019-02-24T11:04:11.803Z,22.63
2019-02-24T11:06:43.634Z,22.59
2019-02-24T11:09:15.261Z,22.59
2019-02-24T11:11:46.985Z,22.64
2019-02-24T11:14:18.599Z,22.72
2019-02-24T11:16:50.292Z,22.72
2019-02-24T11:19:21.955Z,22.73
2019-02-24T11:21:53.863Z,22.74
2019-02-24T11:24:25.780Z,22.89
2019-02-24T11:26:57.272Z,22.88
2019-02-24T11:29:28.914Z,22.86
2019-02-24T11:32:00.561Z,22.95
2019-02-24T11:34:31.942Z,22.88
2019-02-24T11:37:03.748Z,22.82
2019-02-24T11:39:35.459Z,22.94
2019-02-24T11:42:07.218Z,22.94
2019-02-24T11:44:38.904Z,22.86
2019-02-24T11:47:10.556Z,22.92
2019-02-24T11:49:42.246Z,22.95
2019-02-24T11:52:13.845Z,22.81
2019-02-24T11:54:45.411Z,22.76
2019-02-24T11:57:16.826Z,22.76
2019-02-24T11:59:48.364Z,22.77
2019-02-24T12:02:19.759Z,22.68
2019-02-24T12:04:51.469Z,22.55
2019-02-24T12:07:23.259Z,22.55
2019-02-24T12:09:55.119Z,22.53
2019-02-24T12:12:26.796Z,22.53
2019-02-24T12:14:58.417Z,22.54
2019-02-24T12:17:30.015Z,22.50
2019-02-24T12:20:02.048Z,22.54
2019-02-24T12:22:34.767Z,22.54
2019-02-24T12:25:07.116Z,22.54
2019-02-24T12:27:38.746Z,22.52
2019-02-24T12:30:11.327Z,22.49
2019-02-24T12:32:43.034Z,22.45
2019-02-24T12:35:14.872Z,22.46
2019-02-24T12:37:46.553Z,22.34
2019-02-24T12:40:18.474Z,22.26
2019-02-24T12:42:59.804Z,22.26
2019-02-24T12:45:37.540Z,22.24
2019-02-24T12:48:10.273Z,22.16
2019-02-24T12:50:42.127Z,22.12
2019-02-24T12:53:13.981Z,22.03
2019-02-24T12:55:45.632Z,22.03
2019-02-24T12:58:17.757Z,22.02
2019-02-24T13:00:52.814Z,21.95
2019-02-24T13:03:25.393Z,21.95
2019-02-24T13:05:57.235Z,21.99
2019-02-24T13:08:28.827Z,22.00
2019-02-24T13:11:00.465Z,21.98
2019-02-24T13:13:32.979Z,21.93
2019-02-24T13:16:04.523Z,21.90
2019-02-24T13:18:36.854Z,21.83
2019-02-24T13:21:08.808Z,21.75
2019-02-24T13:23:40.479Z,21.70
2019-02-24T13:26:12.571Z,21.71
2019-02-24T13:28:50.459Z,21.74
2019-02-24T13:31:18.229Z,21.71
2019-02-24T13:33:49.986Z,21.68
2019-02-24T13:36:21.665Z,21.61
2019-02-24T13:38:53.211Z,21.56
2019-02-24T13:41:24.917Z,21.51
2019-02-24T13:43:56.711Z,21.39
2019-02-24T13:46:28.543Z,21.39
2019-02-24T13:49:00.333Z,21.39
2019-02-24T13:51:31.902Z,21.48
2019-02-24T13:54:03.368Z,21.46
2019-02-24T13:56:34.933Z,21.46
2019-02-24T13:59:06.680Z,21.36
2019-02-24T14:01:38.354Z,21.25
2019-02-24T14:04:09.728Z,21.23
2019-02-24T14:06:41.361Z,21.20
2019-02-24T14:09:13.493Z,21.17
2019-02-24T14:11:44.996Z,21.17
2019-02-24T14:14:16.664Z,21.19
2019-02-24T14:16:48.250Z,21.17
2019-02-24T14:19:20.186Z,21.26
2019-02-24T14:21:51.845Z,21.20
2019-02-24T14:24:23.658Z,21.18
2019-02-24T14:26:55.368Z,21.18
2019-02-24T14:29:28.287Z,21.08
2019-02-24T14:31:59.915Z,21.00
2019-02-24T14:34:31.606Z,21.00
2019-02-24T14:37:03.286Z,20.96
2019-02-24T14:39:34.892Z,21.12
2019-02-24T14:42:06.654Z,21.12
2019-02-24T14:44:38.192Z,21.16
2019-02-24T14:47:09.765Z,21.16
2019-02-24T14:49:41.198Z,20.94
2019-02-24T14:52:12.685Z,20.78
2019-02-24T14:54:44.375Z,20.47
2019-02-24T14:57:15.909Z,20.47
2019-02-24T14:59:47.629Z,20.55
2019-02-24T15:02:19.011Z,20.59
2019-02-24T15:04:51.740Z,20.59
2019-02-24T15:07:23.295Z,20.62
2019-02-24T15:09:55.031Z,20.53
2019-02-24T15:12:28.151Z,20.43
2019-02-24T15:14:59.906Z,20.32
2019-02-24T15:17:31.667Z,20.27
2019-02-24T15:20:03.377Z,20.27
2019-02-24T15:22:34.998Z,20.31
2019-02-24T15:25:07.475Z,20.16
2019-02-24T15:27:39.512Z,20.10
2019-02-24T15:30:14.329Z,20.09
2019-02-24T15:32:51.572Z,20.09
2019-02-24T15:35:19.152Z,19.97
2019-02-24T15:37:50.914Z,20.09
2019-02-24T15:40:23.706Z,20.03
2019-02-24T15:42:55.360Z,20.11
2019-02-24T15:45:27.027Z,20.11
2019-02-24T15:47:58.735Z,19.98
2019-02-24T15:50:30.236Z,20.17
2019-02-24T15:53:01.878Z,20.17
2019-02-24T15:55:33.334Z,20.07
2019-02-24T15:58:04.938Z,19.93
2019-02-24T16:00:36.662Z,19.92
2019-02-24T16:03:08.196Z,19.89
2019-02-24T16:05:39.809Z,19.73
2019-02-24T16:08:11.137Z,19.73
2019-02-24T16:10:43.011Z,19.89
2019-02-24T16:13:17.002Z,19.89
2019-02-24T16:15:47.981Z,19.79
2019-02-24T16:18:20.564Z,19.79
2019-02-24T16:20:52.175Z,19.60
2019-02-24T16:23:24.932Z,19.60
2019-02-24T16:25:56.345Z,19.64
2019-02-24T16:28:27.954Z,19.65
2019-02-24T16:30:59.560Z,19.65
2019-02-24T16:33:31.118Z,19.68
2019-02-24T16:36:02.827Z,19.50
2019-02-24T16:38:34.222Z,19.43
2019-02-24T16:41:06.084Z,19.43
2019-02-24T16:43:38.000Z,19.58
2019-02-24T16:46:09.956Z,19.58
2019-02-24T16:48:41.623Z,19.67
2019-02-24T16:51:13.161Z,19.63
2019-02-24T16:53:44.680Z,19.57
2019-02-24T16:56:16.442Z,19.55
2019-02-24T16:58:48.081Z,19.55
2019-02-24T17:01:19.805Z,19.57
2019-02-24T17:03:51.582Z,19.44
2019-02-24T17:06:23.437Z,19.44
2019-02-24T17:09:01.261Z,19.36
2019-02-24T17:11:28.556Z,19.38
2019-02-24T17:14:00.070Z,19.30
2019-02-24T17:16:31.756Z,19.13
2019-02-24T17:19:03.195Z,19.31
2019-02-24T17:21:34.718Z,19.26
2019-02-24T17:24:06.272Z,19.29
2019-02-24T17:26:37.708Z,19.29
2019-02-24T17:29:10.190Z,19.19
2019-02-24T17:31:41.812Z,19.15
2019-02-24T17:34:13.565Z,19.15
2019-02-24T17:36:45.309Z,19.18
2019-02-24T17:39:17.025Z,19.07
2019-02-24T17:41:49.078Z,18.76
2019-02-24T17:44:20.919Z,19.00
2019-02-24T17:46:52.680Z,19.00
2019-02-24T17:49:24.444Z,19.13
2019-02-24T17:51:56.201Z,18.78
2019-02-24T17:54:28.026Z,18.78
2019-02-24T17:56:59.588Z,18.75
2019-02-24T17:59:39.991Z,18.82
2019-02-24T18:02:05.004Z,18.96
2019-02-24T18:04:36.905Z,18.76
2019-02-24T18:07:08.527Z,18.76
2019-02-24T18:09:40.408Z,18.78
2019-02-24T18:12:12.414Z,18.65
2019-02-24T18:14:44.041Z,18.57
2019-02-24T18:17:15.574Z,18.57
2019-02-24T18:19:47.208Z,18.63
2019-02-24T18:22:18.537Z,18.54
2019-02-24T18:24:50.207Z,18.48
2019-02-24T18:27:23.715Z,18.81
2019-02-24T18:29:54.895Z,18.86
2019-02-24T18:32:26.521Z,18.47
2019-02-24T18:34:58.213Z,18.38
2019-02-24T18:37:29.906Z,18.38
2019-02-24T18:40:01.351Z,18.37
2019-02-24T18:42:33.569Z,18.53
2019-02-24T18:45:05.064Z,18.53
2019-02-24T18:47:36.667Z,18.53
2019-02-24T18:50:09.021Z,18.62
2019-02-24T18:52:40.663Z,18.58
2019-02-24T18:55:12.354Z,18.53
2019-02-24T18:57:44.052Z,18.41
2019-02-24T19:00:16.585Z,18.24
2019-02-24T19:02:48.811Z,18.38
2019-02-24T19:05:20.321Z,18.38
2019-02-24T19:07:52.384Z,18.25
2019-02-24T19:10:24.186Z,18.30
2019-02-24T19:12:55.974Z,18.23
2019-02-24T19:15:27.699Z,18.23
2019-02-24T19:17:59.223Z,18.12
2019-02-24T19:20:30.670Z,18.12
2019-02-24T19:23:02.420Z,18.18
2019-02-24T19:25:33.810Z,18.27
2019-02-24T19:28:06.738Z,18.27
2019-02-24T19:30:38.595Z,18.17
2019-02-24T19:33:09.974Z,18.25
2019-02-24T19:35:41.539Z,18.24
2019-02-24T19:38:13.311Z,18.32
2019-02-24T19:40:44.595Z,18.24
2019-02-24T19:43:16.420Z,18.25
2019-02-24T19:45:47.764Z,18.06
2019-02-24T19:48:19.395Z,18.13
2019-02-24T19:50:51.056Z,18.13
2019-02-24T19:53:22.643Z,18.06
2019-02-24T19:55:54.516Z,18.10
2019-02-24T19:58:26.128Z,18.10
2019-02-24T20:00:57.567Z,18.17
2019-02-24T20:03:29.412Z,17.86
2019-02-24T20:06:01.071Z,17.86
2019-02-24T20:08:32.699Z,18.13
2019-02-24T20:11:04.712Z,18.13
2019-02-24T20:13:36.553Z,18.03
2019-02-24T20:16:08.173Z,17.87
2019-02-24T20:18:39.626Z,17.94
2019-02-24T20:21:11.962Z,17.80
2019-02-24T20:23:43.517Z,17.94
2019-02-24T20:26:15.203Z,17.95
2019-02-24T20:28:46.833Z,17.95
2019-02-24T20:31:18.693Z,17.89
2019-02-24T20:33:51.385Z,17.78
2019-02-24T20:36:23.059Z,17.90
2019-02-24T20:38:54.658Z,17.90
2019-02-24T20:41:26.670Z,17.68
2019-02-24T20:43:58.270Z,17.68
2019-02-24T20:46:30.086Z,17.61
2019-02-24T20:49:01.461Z,17.72
2019-02-24T20:51:33.284Z,17.65
2019-02-24T20:54:05.849Z,17.45
2019-02-24T20:56:37.628Z,17.45
2019-02-24T20:59:09.078Z,17.40
2019-02-24T21:01:40.615Z,17.35
2019-02-24T21:04:12.541Z,17.38
2019-02-24T21:06:44.317Z,17.40
2019-02-24T21:09:15.816Z,17.33
2019-02-24T21:11:47.932Z,17.33
2019-02-24T21:14:19.595Z,17.50
2019-02-24T21:16:51.200Z,17.52
2019-02-24T21:19:22.697Z,17.17
2019-02-24T21:21:54.149Z,17.41
2019-02-24T21:24:25.763Z,17.42
2019-02-24T21:26:57.573Z,17.39
2019-02-24T21:29:28.937Z,17.33
2019-02-24T21:32:00.537Z,17.28
2019-02-24T21:34:32.204Z,17.31
2019-02-24T21:37:04.090Z,17.31
2019-02-24T21:39:35.661Z,17.28
2019-02-24T21:42:07.735Z,17.31
2019-02-24T21:44:39.277Z,17.31
2019-02-24T21:47:11.825Z,17.44
2019-02-24T21:49:43.454Z,17.28
2019-02-24T21:52:15.092Z,16.98
2019-02-24T21:54:46.652Z,17.33
2019-02-24T21:57:18.247Z,17.28
2019-02-24T21:59:49.607Z,17.11
2019-02-24T22:02:21.421Z,17.14
2019-02-24T22:04:53.126Z,17.14
2019-02-24T22:07:25.733Z,17.18
2019-02-24T22:09:57.245Z,17.21
2019-02-24T22:12:29.205Z,17.00
2019-02-24T22:15:00.592Z,16.92
2019-02-24T22:17:32.076Z,17.20
2019-02-24T22:20:03.758Z,17.20
2019-02-24T22:22:35.489Z,17.20
2019-02-24T22:25:07.533Z,16.75
2019-02-24T22:27:39.227Z,16.84
2019-02-24T22:30:13.017Z,16.68
2019-02-24T22:32:44.763Z,16.64
2019-02-24T22:35:17.637Z,16.92
2019-02-24T22:37:49.460Z,16.92
2019-02-24T22:40:20.790Z,16.74
2019-02-24T22:42:53.047Z,16.95
2019-02-24T22:45:25.045Z,16.75
2019-02-24T22:47:56.995Z,16.61
2019-02-24T22:50:28.782Z,16.61
2019-02-24T22:53:00.515Z,16.75
2019-02-24T22:55:32.747Z,16.81
2019-02-24T22:58:04.313Z,16.57
2019-02-24T23:01:10.155Z,16.57
2019-02-24T23:03:45.355Z,16.33
2019-02-24T23:06:16.765Z,16.33
2019-02-24T23:08:48.604Z,16.52
2019-02-24T23:11:20.115Z,16.52
2019-02-24T23:13:52.008Z,16.38
2019-02-24T23:16:23.675Z,16.48
2019-02-24T23:18:55.160Z,16.46
2019-02-24T23:21:26.970Z,16.08
2019-02-24T23:23:58.436Z,16.08
2019-02-24T23:26:30.164Z,16.46
2019-02-24T23:29:02.050Z,16.04
2019-02-24T23:31:33.733Z,16.26
2019-02-24T23:34:05.259Z,16.11
2019-02-24T23:36:37.104Z,16.24
2019-02-24T23:39:14.724Z,16.24
2019-02-24T23:41:47.046Z,16.23
2019-02-24T23:44:18.580Z,16.15
2019-02-24T23:46:50.606Z,16.39
2019-02-24T23:49:22.288Z,16.16
2019-02-24T23:51:53.827Z,16.16
2019-02-24T23:54:25.437Z,15.97
2019-02-24T23:56:57.337Z,16.38
2019-02-24T23:59:28.707Z,16.38
